Time;durP1;ratioP1;P1;durP2;ratioP2;P2;SDS_P1;SDS_P2;PMS_P1;PMS_P2;Temp;Humidity;BMP_temperature;BMP_pressure;BME280_temperature;BME280_humidity;BME280_pressure;Samples;Min_cycle;Max_cycle;Signal;HPM_P1;HPM_P2
2023/05/05 00:00:01;;;;;;;15.80;9.05;;;;;;;7.42;100.00;93441.69;5132174;27;20047;-71
2023/05/05 00:02:29;;;;;;;15.25;9.63;;;;;;;7.42;100.00;93440.88;5132444;27;20166;-71
2023/05/05 00:04:56;;;;;;;11.95;8.25;;;;;;;7.41;100.00;93442.63;5132091;27;20043;-71
2023/05/05 00:07:22;;;;;;;12.90;8.40;;;;;;;7.48;100.00;93447.81;5132302;27;20047;-71
2023/05/05 00:09:49;;;;;;;12.55;8.32;;;;;;;7.46;100.00;93450.53;5132353;27;20046;-71
2023/05/05 00:12:16;;;;;;;13.15;9.02;;;;;;;7.51;100.00;93449.19;5131808;27;20055;-71
2023/05/05 00:14:43;;;;;;;15.10;8.48;;;;;;;7.48;100.00;93440.94;5131775;27;20058;-71
2023/05/05 00:17:09;;;;;;;13.30;7.63;;;;;;;7.51;100.00;93444.88;5131718;27;20043;-72
2023/05/05 00:19:37;;;;;;;10.70;7.30;;;;;;;7.51;100.00;93444.09;5131838;27;20047;-72
2023/05/05 00:22:04;;;;;;;12.35;9.25;;;;;;;7.50;100.00;93445.84;5131590;27;20047;-72
2023/05/05 00:24:31;;;;;;;12.30;8.60;;;;;;;7.51;100.00;93441.53;5131664;27;20055;-71
2023/05/05 00:26:58;;;;;;;14.68;8.68;;;;;;;7.47;100.00;93434.25;5131297;27;20082;-71
2023/05/05 00:29:25;;;;;;;11.20;8.70;;;;;;;7.46;100.00;93436.97;5132004;27;20051;-71
2023/05/05 00:31:52;;;;;;;12.75;8.50;;;;;;;7.42;100.00;93444.22;5131802;27;20079;-71
2023/05/05 00:34:19;;;;;;;11.52;8.32;;;;;;;7.40;100.00;93442.84;5131482;27;20039;-71
2023/05/05 00:36:47;;;;;;;12.40;8.13;;;;;;;7.38;100.00;93439.66;5131470;27;20039;-71
2023/05/05 00:39:14;;;;;;;11.63;7.80;;;;;;;7.35;100.00;93441.63;5131288;27;20074;-71
2023/05/05 00:41:41;;;;;;;12.35;8.35;;;;;;;7.29;100.00;93439.00;5131231;27;20094;-71
2023/05/05 00:44:08;;;;;;;11.32;8.48;;;;;;;7.20;100.00;93444.25;5131313;27;20499;-71
2023/05/05 00:46:35;;;;;;;10.93;8.60;;;;;;;7.20;100.00;93443.44;5131182;27;20082;-71
2023/05/05 00:49:02;;;;;;;10.52;8.43;;;;;;;7.10;100.00;93443.75;5131261;27;20050;-71
2023/05/05 00:51:30;;;;;;;13.15;8.95;;;;;;;7.09;100.00;93448.06;5131427;27;20047;-71
2023/05/05 00:53:58;;;;;;;11.23;8.00;;;;;;;7.08;100.00;93455.88;5130895;27;20459;-71
2023/05/05 00:56:26;;;;;;;12.50;8.02;;;;;;;7.01;100.00;93444.81;5131184;27;20063;-70
2023/05/05 00:58:53;;;;;;;10.85;8.68;;;;;;;7.05;100.00;93453.72;5131347;27;20051;-71
2023/05/05 01:01:20;;;;;;;10.07;7.68;;;;;;;7.08;100.00;93454.13;5131288;27;20074;-71
2023/05/05 01:03:46;;;;;;;10.38;7.82;;;;;;;7.09;100.00;93453.16;5131423;27;20047;-71
2023/05/05 01:06:31;;;;;;;10.45;8.00;;;;;;;7.09;100.00;93450.59;5131408;27;20108;-71
2023/05/05 01:09:08;;;;;;;10.35;8.00;;;;;;;7.08;100.00;93443.13;5130121;27;20518;-71
2023/05/05 01:11:44;;;;;;;11.02;8.18;;;;;;;7.06;100.00;93439.97;5130003;27;20119;-71
2023/05/05 01:14:13;;;;;;;;;;;;;;;7.06;100.00;93439.97;5131471;27;20050;-71
2023/05/05 01:16:49;;;;;;;12.60;9.48;;;;;;;6.92;100.00;93436.50;5130417;27;20013;-71
2023/05/05 01:19:36;;;;;;;13.52;9.35;;;;;;;6.89;100.00;93432.53;5130612;27;20065;-71
2023/05/05 01:22:07;;;;;;;12.65;9.27;;;;;;;6.82;100.00;93426.56;5130900;27;20043;-71
2023/05/05 01:24:55;;;;;;;26.77;20.90;;;;;;;6.76;100.00;93427.31;5130580;27;20513;-70
2023/05/05 01:27:38;;;;;;;18.48;13.07;;;;;;;6.67;100.00;93412.06;5130892;27;20098;-71
2023/05/05 01:30:24;;;;;;;17.27;11.85;;;;;;;6.74;100.00;93421.56;5130529;27;20053;-71
2023/05/05 01:32:55;;;;;;;19.80;14.75;;;;;;;6.75;100.00;93425.72;5130588;27;20448;-70
2023/05/05 01:35:28;;;;;;;17.73;12.88;;;;;;;6.74;100.00;93419.00;5130310;27;20494;-70
2023/05/05 01:38:02;;;;;;;18.33;14.00;;;;;;;6.73;100.00;93425.09;5130538;27;20039;-70
2023/05/05 01:40:33;;;;;;;24.95;14.85;;;;;;;6.64;100.00;93417.56;5123876;27;20047;-70
2023/05/05 01:43:03;;;;;;;17.75;11.70;;;;;;;6.65;100.00;93413.22;5123098;27;20043;-69
2023/05/05 01:45:33;;;;;;;15.43;11.32;;;;;;;6.63;100.00;93408.28;5129588;27;20560;-69
2023/05/05 01:48:02;;;;;;;18.15;12.02;;;;;;;6.59;100.00;93413.94;5129937;27;20113;-69
2023/05/05 01:50:30;;;;;;;15.35;11.02;;;;;;;6.58;100.00;93407.28;5129835;27;20407;-69
2023/05/05 01:52:58;;;;;;;16.05;12.35;;;;;;;6.62;100.00;93395.75;5129547;27;20050;-69
2023/05/05 01:55:26;;;;;;;17.95;11.75;;;;;;;6.66;100.00;93404.59;5128888;27;20046;-69
2023/05/05 01:57:57;;;;;;;16.77;11.88;;;;;;;6.64;100.00;93401.44;5130139;27;20053;-69
2023/05/05 02:00:25;;;;;;;17.75;11.98;;;;;;;6.64;100.00;93409.09;5129719;27;20051;-69
2023/05/05 02:02:55;;;;;;;17.17;11.52;;;;;;;6.60;100.00;93401.00;5130024;27;20057;-69
2023/05/05 02:05:26;;;;;;;15.75;11.13;;;;;;;6.58;100.00;93404.72;5129781;27;20525;-69
2023/05/05 02:07:57;;;;;;;15.00;10.52;;;;;;;6.52;100.00;93399.34;5129812;27;20055;-69
2023/05/05 02:10:24;;;;;;;15.02;10.57;;;;;;;6.49;100.00;93402.25;5129353;27;20058;-69
2023/05/05 02:12:52;;;;;;;17.85;11.32;;;;;;;6.50;100.00;93401.31;5129582;27;20039;-70
2023/05/05 02:15:20;;;;;;;15.82;11.18;;;;;;;6.51;100.00;93404.63;5129133;27;20088;-70
2023/05/05 02:17:50;;;;;;;15.25;10.02;;;;;;;6.59;100.00;93399.44;5129975;27;20039;-70
2023/05/05 02:20:19;;;;;;;16.00;10.75;;;;;;;6.54;100.00;93399.19;5129510;27;20058;-70
2023/05/05 02:22:47;;;;;;;15.18;11.23;;;;;;;6.49;100.00;93404.81;5129097;27;20046;-70
2023/05/05 02:25:16;;;;;;;19.88;11.45;;;;;;;6.50;100.00;93397.97;5129081;27;20092;-70
2023/05/05 02:27:45;;;;;;;15.25;10.45;;;;;;;6.47;100.00;93400.88;5129377;27;20058;-70
2023/05/05 02:30:15;;;;;;;14.45;10.00;;;;;;;6.44;100.00;93401.22;5129311;27;20074;-70
2023/05/05 02:32:49;;;;;;;13.63;10.55;;;;;;;6.46;100.00;93389.88;5128848;27;20039;-70
2023/05/05 02:35:20;;;;;;;15.25;11.48;;;;;;;6.41;100.00;93389.63;5129007;27;20530;-70
2023/05/05 02:37:58;;;;;;;10.80;8.65;;;;;;;6.46;100.00;93386.50;5128386;27;20046;-70
2023/05/05 02:40:28;;;;;;;85.40;49.38;;;;;;;6.44;100.00;93388.47;5128988;27;20043;-70
2023/05/05 02:42:57;;;;;;;33.13;20.75;;;;;;;6.46;100.00;93387.31;5129523;27;20058;-70
2023/05/05 02:45:26;;;;;;;24.80;16.77;;;;;;;6.43;100.00;93392.78;5128748;27;20054;-70
2023/05/05 02:47:53;;;;;;;22.15;15.45;;;;;;;6.50;100.00;93390.31;5128388;27;20054;-70
2023/05/05 02:50:20;;;;;;;19.67;12.98;;;;;;;6.46;100.00;93382.22;5129024;27;20075;-70
2023/05/05 02:52:49;;;;;;;15.90;11.63;;;;;;;6.49;100.00;93384.41;5128646;27;20043;-70
2023/05/05 02:55:16;;;;;;;14.77;12.00;;;;;;;6.46;100.00;93387.31;5128807;27;20059;-70
2023/05/05 02:57:49;;;;;;;16.58;10.68;;;;;;;6.40;100.00;93383.72;5128387;27;20159;-70
2023/05/05 03:00:24;;;;;;;13.52;10.43;;;;;;;6.25;100.00;93365.88;5128763;27;20055;-70
2023/05/05 03:03:01;;;;;;;13.30;10.77;;;;;;;6.35;100.00;93382.69;5128796;27;20047;-70
2023/05/05 03:05:35;;;;;;;13.38;11.15;;;;;;;6.32;100.00;93383.81;5128351;27;20044;-71
2023/05/05 03:08:09;;;;;;;13.90;9.80;;;;;;;6.27;100.00;93381.81;5128544;27;20057;-71
2023/05/05 03:10:43;;;;;;;13.73;9.85;;;;;;;6.32;100.00;93383.81;5128652;27;20376;-71
2023/05/05 03:13:12;;;;;;;12.65;9.48;;;;;;;6.18;100.00;93375.22;5128418;27;20071;-71
2023/05/05 03:15:44;;;;;;;13.18;9.98;;;;;;;6.20;100.00;93380.94;5101371;27;20039;-71
2023/05/05 03:18:14;;;;;;;13.85;10.30;;;;;;;6.14;100.00;93379.91;5128518;27;20107;-71
2023/05/05 03:20:42;;;;;;;14.05;9.90;;;;;;;6.02;100.00;93383.84;5128256;27;20488;-71
2023/05/05 03:23:12;;;;;;;13.40;10.27;;;;;;;6.01;100.00;93383.03;5127876;27;20092;-70
2023/05/05 03:25:42;;;;;;;15.90;11.15;;;;;;;5.87;100.00;93376.19;5127869;27;20039;-71
2023/05/05 03:28:09;;;;;;;21.52;14.57;;;;;;;5.97;100.00;93386.13;5128078;27;20495;-71
2023/05/05 03:30:36;;;;;;;16.15;11.27;;;;;;;5.92;100.00;93390.97;5128150;27;20051;-71
2023/05/05 03:33:02;;;;;;;12.00;9.40;;;;;;;5.89;100.00;93384.47;5126985;27;20116;-70
2023/05/05 03:35:29;;;;;;;15.63;11.25;;;;;;;5.94;100.00;93381.38;5128381;27;20054;-70
2023/05/05 03:37:56;;;;;;;14.23;10.70;;;;;;;5.83;100.00;93367.31;5127721;27;20051;-70
2023/05/05 03:40:24;;;;;;;12.63;9.85;;;;;;;6.03;100.00;93382.91;5128102;27;20553;-70
2023/05/05 03:42:51;;;;;;;14.35;11.23;;;;;;;6.13;100.00;93385.16;5127652;27;20043;-70
2023/05/05 03:45:18;;;;;;;19.38;14.57;;;;;;;6.26;100.00;93380.22;5127704;27;20047;-70
2023/05/05 03:47:45;;;;;;;11.75;9.45;;;;;;;6.31;100.00;93389.91;5127404;28;20046;-70
2023/05/05 03:50:11;;;;;;;14.60;9.32;;;;;;;6.26;100.00;93384.53;5127907;28;20054;-71
2023/05/05 03:52:38;;;;;;;13.90;9.48;;;;;;;6.31;100.00;93384.00;5127610;28;20043;-70
2023/05/05 03:55:06;;;;;;;14.63;9.95;;;;;;;6.31;100.00;93389.09;5128229;28;20055;-70
2023/05/05 03:57:34;;;;;;;17.83;11.07;;;;;;;6.30;100.00;93395.19;5123536;28;20047;-70
2023/05/05 04:00:01;;;;;;;20.15;11.50;;;;;;;6.38;100.00;93397.63;5119473;28;20054;-70
2023/05/05 04:02:28;;;;;;;14.80;10.77;;;;;;;6.21;100.00;93356.22;5127822;28;20043;-70
2023/05/05 04:04:54;;;;;;;12.98;9.23;;;;;;;6.48;100.00;93394.81;5115400;28;20044;-70
2023/05/05 04:07:22;;;;;;;13.55;8.88;;;;;;;6.41;100.00;93400.63;5112985;28;20083;-70
2023/05/05 04:09:49;;;;;;;13.68;8.95;;;;;;;6.46;100.00;93396.72;5128120;28;20054;-70
2023/05/05 04:12:16;;;;;;;17.02;10.35;;;;;;;6.56;100.00;93402.34;5127710;28;20395;-70
2023/05/05 04:14:44;;;;;;;14.68;11.63;;;;;;;6.58;100.00;93400.41;5127983;28;20047;-70
2023/05/05 04:17:11;;;;;;;14.57;10.93;;;;;;;6.72;100.00;93405.66;5127730;28;20047;-70
2023/05/05 04:19:37;;;;;;;23.85;14.50;;;;;;;6.77;100.00;93411.78;5127156;28;20526;-70
2023/05/05 04:22:04;;;;;;;20.15;12.15;;;;;;;6.90;100.00;93408.56;5127652;28;20071;-70
2023/05/05 04:24:31;;;;;;;22.30;14.20;;;;;;;6.88;100.00;93395.22;5128012;28;20126;-70
2023/05/05 04:26:57;;;;;;;20.98;14.15;;;;;;;7.08;100.00;93410.72;5090465;28;20508;-70
2023/05/05 04:29:24;;;;;;;24.95;16.30;;;;;;;7.15;100.00;93417.66;5100871;28;20055;-70
2023/05/05 04:31:53;;;;;;;20.25;14.63;;;;;;;7.22;100.00;93415.94;5128074;28;20035;-70
2023/05/05 04:34:19;;;;;;;16.85;12.60;;;;;;;7.25;100.00;93422.44;5126930;28;20043;-70
2023/05/05 04:36:46;;;;;;;15.93;11.45;;;;;;;7.25;100.00;93423.25;5127861;28;20047;-70
2023/05/05 04:39:13;;;;;;;22.13;12.27;;;;;;;7.26;100.00;93424.03;5127303;28;20533;-70
2023/05/05 04:41:40;;;;;;;18.85;11.98;;;;;;;7.38;100.00;93417.44;5104454;28;20411;-71
2023/05/05 04:44:06;;;;;;;19.85;13.63;;;;;;;7.51;100.00;93421.88;5108039;27;20044;-71
2023/05/05 04:46:33;;;;;;;18.10;12.20;;;;;;;7.62;100.00;93423.13;5114767;27;20460;-71
2023/05/05 04:49:03;;;;;;;18.55;12.25;;;;;;;7.77;100.00;93422.25;5111234;27;20138;-71
2023/05/05 04:51:30;;;;;;;19.52;12.23;;;;;;;7.84;100.00;93416.22;5101672;27;20046;-71
2023/05/05 04:53:57;;;;;;;20.25;12.98;;;;;;;7.95;100.00;93414.09;5118040;27;20058;-71
2023/05/05 04:56:24;;;;;;;18.65;12.10;;;;;;;8.08;100.00;93413.38;5131096;27;20051;-70
2023/05/05 04:58:51;;;;;;;18.33;11.05;;;;;;;8.24;100.00;93415.63;5114197;27;20396;-71
2023/05/05 05:01:18;;;;;;;12.77;8.68;;;;;;;8.34;100.00;93419.63;5117840;27;20138;-71
2023/05/05 05:03:45;;;;;;;6.18;4.68;;;;;;;8.24;100.00;93419.97;5126168;27;20055;-71
2023/05/05 05:06:13;;;;;;;5.10;3.80;;;;;;;8.23;100.00;93424.28;5130839;27;20151;-71
2023/05/05 05:08:39;;;;;;;7.65;5.00;;;;;;;8.34;100.00;93425.50;5130584;27;20121;-71
2023/05/05 05:11:06;;;;;;;5.22;4.22;;;;;;;8.22;100.00;93427.03;5130504;27;20079;-70
2023/05/05 05:13:33;;;;;;;6.40;4.57;;;;;;;8.28;100.00;93426.25;5130243;27;20464;-70
2023/05/05 05:16:00;;;;;;;5.57;3.92;;;;;;;8.38;100.00;93428.50;5129640;27;20047;-71
2023/05/05 05:18:27;;;;;;;6.68;5.05;;;;;;;8.45;100.00;93431.88;5129614;27;20524;-71
2023/05/05 05:20:54;;;;;;;7.75;5.45;;;;;;;8.49;100.00;93433.06;5130889;27;20108;-71
2023/05/05 05:23:22;;;;;;;7.55;5.28;;;;;;;8.60;100.00;93436.09;5130432;27;20047;-71
2023/05/05 05:25:48;;;;;;;6.35;4.78;;;;;;;8.60;100.00;93442.00;5129413;27;20047;-72
2023/05/05 05:28:15;;;;;;;5.85;4.50;;;;;;;8.63;100.00;93435.69;5130406;27;20054;-72
2023/05/05 05:30:42;;;;;;;11.70;5.28;;;;;;;8.69;100.00;93437.50;5130643;27;20468;-71
2023/05/05 05:33:09;;;;;;;10.27;5.68;;;;;;;8.77;100.00;93449.34;5129722;27;20047;-71
2023/05/05 05:35:36;;;;;;;7.55;4.40;;;;;;;8.88;100.00;93448.00;5118518;27;20555;-71
2023/05/05 05:38:02;;;;;;;6.35;4.55;;;;;;;8.96;100.00;93445.25;5127379;27;20051;-70
2023/05/05 05:40:31;;;;;;;6.47;4.75;;;;;;;8.91;100.00;93450.16;5130379;27;20534;-71
2023/05/05 05:42:58;;;;;;;6.15;4.55;;;;;;;8.92;100.00;93451.75;5129535;27;20083;-71
2023/05/05 05:45:24;;;;;;;6.25;4.30;;;;;;;9.04;100.00;93455.34;5129835;27;20495;-71
2023/05/05 05:47:51;;;;;;;4.65;3.67;;;;;;;8.95;100.00;93451.38;5129910;27;20134;-71
2023/05/05 05:50:18;;;;;;;5.63;3.42;;;;;;;8.95;100.00;93464.97;5130182;27;20043;-71
2023/05/05 05:52:45;;;;;;;5.43;3.03;;;;;;;9.02;100.00;93454.72;5130207;27;20104;-70
2023/05/05 05:55:11;;;;;;;4.63;2.85;;;;;;;9.01;100.00;93462.59;5129483;27;20496;-70
2023/05/05 05:57:40;;;;;;;8.02;3.90;;;;;;;9.20;100.00;93458.50;5129099;27;20067;-71
2023/05/05 06:00:08;;;;;;;7.80;3.67;;;;;;;9.33;100.00;93461.09;5129498;27;20043;-71
2023/05/05 06:02:34;;;;;;;6.65;3.55;;;;;;;9.47;100.00;93467.03;5128818;27;20043;-71
2023/05/05 06:05:01;;;;;;;4.43;3.00;;;;;;;9.60;100.00;93473.97;5129692;27;20553;-71
2023/05/05 06:07:28;;;;;;;3.08;2.17;;;;;;;9.48;100.00;93472.94;5126575;27;20199;-71
2023/05/05 06:09:55;;;;;;;5.18;3.40;;;;;;;9.69;100.00;93471.19;5117044;27;20044;-71
2023/05/05 06:12:22;;;;;;;3.75;2.80;;;;;;;9.67;100.00;93471.38;5129359;27;20047;-71
2023/05/05 06:14:50;;;;;;;9.63;5.53;;;;;;;9.62;100.00;93463.47;5129496;27;20088;-71
2023/05/05 06:17:17;;;;;;;16.75;10.75;;;;;;;9.76;100.00;93471.97;5129426;27;20503;-71
2023/05/05 06:19:43;;;;;;;7.38;4.88;;;;;;;9.82;100.00;93478.88;5129758;27;20047;-71
2023/05/05 06:22:10;;;;;;;5.35;3.30;;;;;;;9.74;100.00;93486.78;5129244;27;20086;-71
2023/05/05 06:24:37;;;;;;;32.42;19.45;;;;;;;9.83;100.00;93482.25;5129318;27;20422;-71
2023/05/05 06:27:04;;;;;;;11.70;7.95;;;;;;;9.88;100.00;93479.88;5128719;27;20047;-71
2023/05/05 06:29:31;;;;;;;13.40;8.85;;;;;;;9.92;100.00;93477.69;5116612;27;20047;-71
2023/05/05 06:32:00;;;;;;;5.20;3.15;;;;;;;10.20;100.00;93471.53;5109395;27;20400;-71
2023/05/05 06:34:26;;;;;;;8.27;4.38;;;;;;;10.49;100.00;93474.66;5106129;28;20050;-71
2023/05/05 06:36:53;;;;;;;4.82;3.30;;;;;;;10.59;100.00;93480.16;5110022;27;20130;-71
2023/05/05 06:39:20;;;;;;;8.27;4.80;;;;;;;10.81;100.00;93475.53;5129011;27;20047;-71
2023/05/05 06:41:47;;;;;;;4.07;2.72;;;;;;;10.78;100.00;93475.94;5129434;27;20059;-71
2023/05/05 06:44:13;;;;;;;3.10;1.90;;;;;;;10.90;100.00;93473.53;5128919;27;20043;-71
2023/05/05 06:46:42;;;;;;;3.47;2.40;;;;;;;10.81;100.00;93474.75;5128543;27;20050;-71
2023/05/05 06:49:10;;;;;;;2.70;2.00;;;;;;;10.72;100.00;93476.75;5129020;27;20043;-71
2023/05/05 06:51:37;;;;;;;3.70;2.28;;;;;;;10.78;100.00;93467.47;5128654;27;20131;-71
2023/05/05 06:54:03;;;;;;;5.65;3.60;;;;;;;11.01;100.00;93472.09;5128328;27;20047;-71
2023/05/05 06:56:30;;;;;;;3.30;2.30;;;;;;;11.11;100.00;93476.00;5128305;27;20047;-71
2023/05/05 06:58:57;;;;;;;3.47;2.10;;;;;;;11.29;100.00;93473.50;5118263;27;20326;-71
2023/05/05 07:01:24;;;;;;;4.53;2.45;;;;;;;11.50;100.00;93463.91;5124767;27;20507;-71
2023/05/05 07:03:52;;;;;;;3.50;2.15;;;;;;;11.76;100.00;93468.06;5114378;27;20077;-71
2023/05/05 07:06:20;;;;;;;3.05;1.92;;;;;;;11.41;100.00;93473.66;5128424;27;20079;-71
2023/05/05 07:08:47;;;;;;;3.15;1.80;;;;;;;11.56;100.00;93463.06;5128351;27;20075;-72
2023/05/05 07:11:13;;;;;;;3.70;2.53;;;;;;;11.85;100.00;93460.84;5128271;27;20039;-71
2023/05/05 07:13:40;;;;;;;7.00;4.03;;;;;;;11.55;100.00;93453.78;5126698;27;20042;-71
2023/05/05 07:16:07;;;;;;;2.60;1.80;;;;;;;11.73;100.00;93453.03;5128014;27;20047;-71
2023/05/05 07:18:34;;;;;;;4.32;2.35;;;;;;;11.98;100.00;93454.00;5128290;27;20039;-71
2023/05/05 07:21:01;;;;;;;3.28;2.10;;;;;;;11.99;100.00;93460.75;5127881;27;20083;-71
2023/05/05 07:23:29;;;;;;;4.80;2.67;;;;;;;12.30;100.00;93446.22;5127199;27;20043;-71
2023/05/05 07:25:56;;;;;;;14.50;5.40;;;;;;;12.50;100.00;93452.94;5128163;27;20956;-71
2023/05/05 07:28:22;;;;;;;5.82;3.33;;;;;;;12.87;100.00;93452.91;5127407;27;20088;-71
2023/05/05 07:30:49;;;;;;;5.20;2.10;;;;;;;12.79;100.00;93443.69;5127696;27;20055;-70
2023/05/05 07:33:17;;;;;;;2.22;1.42;;;;;;;12.62;100.00;93451.22;5128069;27;20047;-71
2023/05/05 07:35:44;;;;;;;6.18;2.10;;;;;;;12.39;100.00;93452.66;5128189;27;20411;-71
2023/05/05 07:38:11;;;;;;;3.53;1.40;;;;;;;12.10;100.00;93451.56;5128195;27;20400;-71
2023/05/05 07:40:39;;;;;;;4.68;2.20;;;;;;;12.46;100.00;93455.19;5128393;27;20043;-71
2023/05/05 07:43:06;;;;;;;3.30;1.77;;;;;;;12.66;100.00;93436.09;5127958;27;20043;-71
2023/05/05 07:45:33;;;;;;;2.60;1.88;;;;;;;12.90;100.00;93451.69;5128626;27;20047;-71
2023/05/05 07:47:59;;;;;;;3.55;2.15;;;;;;;13.12;100.00;93446.03;5128091;28;20096;-71
2023/05/05 07:50:26;;;;;;;2.60;1.85;;;;;;;13.13;100.00;93445.03;5128120;28;20100;-71
2023/05/05 07:52:53;;;;;;;3.03;2.10;;;;;;;13.23;100.00;93445.28;5128347;28;20096;-71
2023/05/05 07:55:20;;;;;;;2.83;1.88;;;;;;;13.49;94.81;93451.91;5127989;28;20112;-71
2023/05/05 07:57:48;;;;;;;3.20;2.33;;;;;;;13.60;96.16;93450.34;5127321;28;20388;-71
2023/05/05 08:00:18;;;;;;;3.80;2.08;;;;;;;13.65;96.53;93452.25;5127983;28;20590;-71
2023/05/05 08:02:45;;;;;;;2.80;1.40;;;;;;;13.63;88.33;93456.88;5128223;28;20043;-72
2023/05/05 08:05:12;;;;;;;3.00;1.35;;;;;;;13.36;90.59;93426.28;5127899;28;20112;-71
2023/05/05 08:07:40;;;;;;;3.13;1.58;;;;;;;13.67;89.11;93433.97;5127599;28;20096;-71
2023/05/05 08:10:08;;;;;;;2.47;1.50;;;;;;;13.50;88.26;93434.63;5127992;28;20149;-72
2023/05/05 08:12:35;;;;;;;2.30;1.30;;;;;;;13.45;88.80;93449.94;5127665;28;20548;-71
2023/05/05 08:15:03;;;;;;;2.35;1.42;;;;;;;13.64;88.99;93442.94;5127840;28;20116;-71
2023/05/05 08:17:30;;;;;;;2.08;1.20;;;;;;;14.14;89.48;93433.19;5127580;28;20043;-71
2023/05/05 08:19:57;;;;;;;2.42;1.42;;;;;;;14.23;88.15;93441.41;5129894;27;20047;-71
2023/05/05 08:22:23;;;;;;;2.60;1.45;;;;;;;14.10;86.80;93426.91;5132412;27;20659;-71
2023/05/05 08:24:50;;;;;;;2.38;1.58;;;;;;;14.46;87.30;93425.06;5131486;27;20093;-71
2023/05/05 08:27:17;;;;;;;2.10;1.40;;;;;;;14.22;86.01;93424.31;5131091;27;20051;-71
2023/05/05 08:29:44;;;;;;;3.00;1.70;;;;;;;14.21;90.24;93420.19;5131858;27;20039;-71
2023/05/05 08:32:12;;;;;;;2.45;1.45;;;;;;;14.03;88.46;93414.13;5132044;27;20047;-71
2023/05/05 08:34:38;;;;;;;4.38;1.70;;;;;;;13.86;92.30;93425.13;5131658;27;20042;-71
2023/05/05 08:37:05;;;;;;;4.13;1.58;;;;;;;13.89;93.96;93426.47;5131500;27;20061;-72
2023/05/05 08:39:32;;;;;;;3.13;2.10;;;;;;;14.00;90.66;93417.16;5131629;27;20039;-71
2023/05/05 08:41:59;;;;;;;2.75;1.90;;;;;;;14.53;88.73;93415.38;5130834;27;20047;-71
2023/05/05 08:44:27;;;;;;;3.33;2.03;;;;;;;14.66;85.67;93418.72;5131267;27;20035;-72
2023/05/05 08:46:54;;;;;;;3.28;2.00;;;;;;;14.65;80.95;93422.31;5131419;27;20046;-72
2023/05/05 08:49:24;;;;;;;3.38;2.17;;;;;;;14.87;85.23;93417.34;5131017;27;20047;-71
2023/05/05 08:51:53;;;;;;;3.33;2.28;;;;;;;14.75;84.90;93411.41;5131342;27;20047;-71
2023/05/05 08:54:26;;;;;;;3.67;1.95;;;;;;;14.83;88.80;93413.66;5130558;27;20423;-71
2023/05/05 08:56:55;;;;;;;4.05;2.33;;;;;;;14.81;83.71;93411.28;5131256;27;20513;-71
2023/05/05 08:59:24;;;;;;;4.25;2.42;;;;;;;14.86;84.77;93413.16;5131563;27;20472;-71
2023/05/05 09:01:53;;;;;;;3.90;2.40;;;;;;;15.02;79.03;93416.84;5130979;27;20050;-71
2023/05/05 09:04:19;;;;;;;3.17;2.13;;;;;;;15.15;81.80;93415.75;5105072;27;20047;-71
2023/05/05 09:06:48;;;;;;;4.05;2.25;;;;;;;15.04;83.06;93416.59;5130819;27;20055;-72
2023/05/05 09:09:15;;;;;;;3.28;1.80;;;;;;;15.07;84.29;93414.34;5130924;27;20055;-71
2023/05/05 09:11:43;;;;;;;4.45;2.03;;;;;;;15.16;88.15;93406.97;5130704;27;20499;-72
2023/05/05 09:14:09;;;;;;;2.67;1.63;;;;;;;15.14;83.86;93406.41;5130874;27;20054;-71
2023/05/05 09:16:40;;;;;;;2.92;1.60;;;;;;;15.12;90.51;93412.84;5130795;27;20047;-72
2023/05/05 09:19:06;;;;;;;2.35;1.48;;;;;;;15.33;87.00;93403.63;5131203;27;20459;-71
2023/05/05 09:21:33;;;;;;;6.90;1.85;;;;;;;15.73;89.33;93399.31;5130931;27;20111;-72
2023/05/05 09:24:09;;;;;;;6.15;3.15;;;;;;;15.59;83.45;93404.81;5130343;27;20050;-72
2023/05/05 09:26:37;;;;;;;6.63;3.25;;;;;;;15.73;84.90;93405.28;5130859;27;20734;-71
2023/05/05 09:29:04;;;;;;;9.13;3.72;;;;;;;15.44;83.75;93400.19;5130259;27;20050;-72
2023/05/05 09:31:32;;;;;;;3.53;1.92;;;;;;;15.63;89.06;93407.72;5129483;27;20046;-72
2023/05/05 09:34:00;;;;;;;3.20;1.58;;;;;;;14.88;93.23;93393.06;5130444;27;20047;-72
2023/05/05 09:36:46;;;;;;;4.22;1.80;;;;;;;15.07;95.22;93405.78;5130285;27;20047;-72
2023/05/05 09:39:14;;;;;;;;;;;;;;;15.08;96.98;93397.78;5130401;27;20126;-72
2023/05/05 09:41:43;;;;;;;2.35;1.45;;;;;;;14.38;95.24;93369.34;5130589;27;20013;-72
2023/05/05 09:44:10;;;;;;;4.28;1.42;;;;;;;14.69;95.91;93398.34;5130142;27;20046;-72
2023/05/05 09:46:36;;;;;;;2.63;1.42;;;;;;;14.74;94.32;93399.47;5130447;27;20100;-72
2023/05/05 09:49:15;;;;;;;2.35;1.50;;;;;;;14.99;93.32;93394.00;5129638;27;20514;-72
2023/05/05 09:51:42;;;;;;;2.90;1.63;;;;;;;15.27;95.60;93391.63;5130326;27;20076;-72
2023/05/05 09:54:09;;;;;;;4.82;1.55;;;;;;;15.39;94.55;93388.94;5129755;27;20503;-72
2023/05/05 09:56:40;;;;;;;6.22;3.63;;;;;;;15.25;88.07;93370.34;5130264;27;20055;-72
2023/05/05 09:59:11;;;;;;;8.00;3.42;;;;;;;15.60;85.07;93388.25;5129724;27;20047;-72
2023/05/05 10:01:38;;;;;;;10.23;4.10;;;;;;;15.75;86.14;93392.09;5130006;27;20473;-72
2023/05/05 10:04:05;;;;;;;4.30;2.50;;;;;;;15.81;87.08;93401.50;5129225;27;20120;-72
2023/05/05 10:06:45;;;;;;;2.95;1.55;;;;;;;15.59;84.37;93383.31;5130198;27;20579;-72
2023/05/05 10:09:12;;;;;;;4.43;2.03;;;;;;;15.78;85.54;93396.78;5103086;27;20050;-72
2023/05/05 10:11:42;;;;;;;4.15;2.13;;;;;;;16.16;84.46;93394.50;5129050;27;20051;-72
2023/05/05 10:14:12;;;;;;;15.60;7.57;;;;;;;16.38;82.41;93386.72;5121253;27;20047;-72
2023/05/05 10:16:45;;;;;;;6.88;3.30;;;;;;;17.18;83.59;93390.69;5124233;27;20051;-72
2023/05/05 10:19:15;;;;;;;22.83;10.38;;;;;;;17.03;79.80;93380.94;5129783;27;20483;-72
2023/05/05 10:21:47;;;;;;;4.57;1.73;;;;;;;17.22;80.61;93385.81;5129520;27;20099;-72
2023/05/05 10:24:17;;;;;;;3.38;1.77;;;;;;;17.02;78.82;93376.75;5129801;27;20074;-72
2023/05/05 10:26:46;;;;;;;4.05;2.00;;;;;;;16.69;80.65;93383.69;5129785;27;20094;-72
2023/05/05 10:29:20;;;;;;;2.55;1.67;;;;;;;16.95;78.32;93379.53;5129701;27;20460;-72
2023/05/05 10:31:52;;;;;;;4.05;2.60;;;;;;;17.22;81.27;93381.38;5129394;27;20054;-72
2023/05/05 10:34:24;;;;;;;4.57;1.60;;;;;;;16.69;77.26;93378.50;5115134;27;20441;-72
2023/05/05 10:36:52;;;;;;;3.55;2.10;;;;;;;17.03;76.25;93380.94;5116826;27;20045;-72
2023/05/05 10:39:20;;;;;;;2.47;1.45;;;;;;;16.51;77.62;93374.41;5129048;27;20050;-73
2023/05/05 10:41:49;;;;;;;2.60;1.63;;;;;;;17.19;77.75;93379.28;5128592;27;20035;-72
2023/05/05 10:44:16;;;;;;;5.93;2.40;;;;;;;16.95;76.16;93382.13;5128807;27;20047;-72
2023/05/05 10:46:44;;;;;;;2.70;1.45;;;;;;;16.60;77.75;93372.97;5129070;27;20045;-73
2023/05/05 10:49:19;;;;;;;2.28;1.33;;;;;;;16.91;75.66;93386.28;5128645;27;20050;-72
2023/05/05 10:51:53;;;;;;;3.88;1.42;;;;;;;16.54;74.95;93377.28;5128986;27;20047;-72
2023/05/05 10:54:28;;;;;;;4.55;1.83;;;;;;;16.51;77.25;93375.22;5128782;27;20544;-73
2023/05/05 10:56:57;;;;;;;3.20;1.90;;;;;;;16.56;73.39;93369.28;5128805;27;20043;-72
2023/05/05 10:59:41;;;;;;;3.53;1.30;;;;;;;16.78;76.35;93371.06;5111475;27;20046;-72
2023/05/05 11:02:25;;;;;;;2.33;1.33;;;;;;;16.25;73.78;93379.31;5129032;27;20047;-72
2023/05/05 11:05:20;;;;;;;2.63;1.75;;;;;;;16.47;74.42;93371.53;5128370;27;20054;-72
2023/05/05 11:08:05;;;;;;;2.40;1.35;;;;;;;16.73;74.32;93361.44;5069592;27;20047;-72
2023/05/05 11:10:43;;;;;;;;;;;;;;;16.53;76.15;93370.56;5129196;27;20047;-73
2023/05/05 11:13:20;;;;;;;8.63;1.40;;;;;;;16.32;76.58;93366.16;5128640;27;19923;-72
2023/05/05 11:15:49;;;;;;;3.05;1.80;;;;;;;16.71;74.25;93360.88;5103976;27;20050;-73
2023/05/05 11:18:30;;;;;;;2.58;1.15;;;;;;;16.90;72.94;93363.16;5128786;27;20043;-73
2023/05/05 11:21:21;;;;;;;3.13;1.17;;;;;;;16.99;73.60;93361.66;5128053;27;20183;-73
2023/05/05 11:23:49;;;;;;;2.00;1.08;;;;;;;17.40;72.67;93358.66;5101912;27;20043;-72
2023/05/05 11:26:18;;;;;;;2.42;1.20;;;;;;;17.00;73.55;93362.47;5128110;27;20051;-72
2023/05/05 11:28:58;;;;;;;2.75;1.25;;;;;;;17.14;74.17;93361.06;5128377;27;20388;-73
2023/05/05 11:31:25;;;;;;;3.65;1.40;;;;;;;16.69;74.77;93355.97;5128439;27;20072;-72
2023/05/05 11:33:52;;;;;;;2.42;1.70;;;;;;;16.55;74.96;93352.97;5127905;27;20454;-73